Pagrindinis puslapis
METAR-TAF:

METAR-TAF

Oro uostai :

Kalmaras, Švedija

platuma: 56-44N, ilguma: 016-18E, Aukštis: 16 m

Dabartinis oras

Ataskaita buvo paskelbta 11 minutes, ne 23:50 UTC
Ramus vėjas
Temperatūra -1°C
Drėgmė 100%
Slėgis 1030 hPa
Matomumas: 1900 m
rūkana

METAR: ESMQ 052350Z AUTO 00000KT 1900 BR NCD M01/M01 Q1030

Laikas: 02:01 (00:01 UTC)

Prognozė

Ataskaita buvo paskelbta 12 valandos ir 31 minutes, ne 11:30 UTC
Prognozė galioja nuo 05 metu 12 UTC su 05 metu 16 UTC
Vėjas 12 kt iš Pietų/Pietryčių
Matomumas 10 km arba daugiau
nėra debesų žemiau 1500 m ir nėra kamuolinių lietaus debesų

TAF: ESMQ 051130Z 0512/0516 16012KT CAVOK

Orai ataskaitas ir orų prognozės (METAR, TAF).

turimą stotys yra geltonos ir raudonos taškus žemėlapyje.

Perkelti pele per norėdami pamatyti stoties vardą.

Tada spustelėkite, norėdami matyti oro stebėjimo ir prognozės.

Norėdami pakeisti žemėlapį: spustelėkite ant žalios mygtukų su juodo kryžiaus žemyn,; žalią mygtuką su brūkšneliu, jei norite nutolinti; arba žalių rodyklių gretimoms žemėlapius.


METAR-TAF: